Time;durP1;ratioP1;P1;durP2;ratioP2;P2;SDS_P1;SDS_P2;PMS_P1;PMS_P2;Temp;Humidity;BMP_temperature;BMP_pressure;BME280_temperature;BME280_humidity;BME280_pressure;Samples;Min_cycle;Max_cycle;Signal;HPM_P1;HPM_P2
2021/04/24 00:00:18;;;;;;;10.50;5.30;;;;;;;;;;4359779;33;20154;-73
2021/04/24 00:02:44;;;;;;;11.97;5.40;;;;;;;;;;4359806;33;20193;-73
2021/04/24 00:05:14;;;;;;;15.20;5.40;;;;;;;;;;4359924;33;20132;-73
2021/04/24 00:07:40;;;;;;;12.63;5.60;;;;;;;;;;4360018;33;20154;-73
2021/04/24 00:10:06;;;;;;;12.13;5.10;;;;;;;;;;4359932;33;20201;-73
2021/04/24 00:12:32;;;;;;;17.13;5.63;;;;;;;;;;4359876;33;20529;-73
2021/04/24 00:15:07;;;;;;;13.73;6.07;;;;;;;;;;4358564;33;20229;-73
2021/04/24 00:17:33;;;;;;;13.03;5.57;;;;;;;;;;4360971;32;20576;-73
2021/04/24 00:19:58;;;;;;;12.33;5.57;;;;;;;;;;4361043;33;20197;-73
2021/04/24 00:22:23;;;;;;;13.77;5.73;;;;;;;;;;4362234;32;20173;-73
2021/04/24 00:24:49;;;;;;;12.83;6.27;;;;;;;;;;4361792;32;20159;-73
2021/04/24 00:27:14;;;;;;;13.63;5.47;;;;;;;;;;4362500;32;20140;-73
2021/04/24 00:29:43;;;;;;;16.10;6.00;;;;;;;;;;4361976;32;20178;-73
2021/04/24 00:32:10;;;;;;;14.90;6.13;;;;;;;;;;4348429;33;20220;-73
2021/04/24 00:34:36;;;;;;;11.73;5.73;;;;;;;;;;4362102;32;20619;-73
2021/04/24 00:37:10;;;;;;;14.83;6.30;;;;;;;;;;4361987;32;20206;-72
2021/04/24 00:39:35;;;;;;;13.20;6.57;;;;;;;;;;4362832;32;20184;-73
2021/04/24 00:42:00;;;;;;;18.73;6.50;;;;;;;;;;4362227;32;20135;-73
2021/04/24 00:44:31;;;;;;;15.67;7.13;;;;;;;;;;4361853;33;20127;-73
2021/04/24 00:46:56;;;;;;;16.80;7.10;;;;;;;;;;4362142;32;20177;-72
2021/04/24 00:49:22;;;;;;;14.90;7.20;;;;;;;;;;4361935;32;20154;-73
2021/04/24 00:51:47;;;;;;;20.37;7.43;;;;;;;;;;4361766;33;20205;-73
2021/04/24 00:54:12;;;;;;;18.23;7.80;;;;;;;;;;4361738;32;20134;-74
2021/04/24 00:56:37;;;;;;;17.23;6.67;;;;;;;;;;4362507;32;20425;-74
2021/04/24 00:59:03;;;;;;;17.63;7.40;;;;;;;;;;4361892;32;20170;-73
2021/04/24 01:01:28;;;;;;;16.93;7.07;;;;;;;;;;4361615;33;20184;-74
2021/04/24 01:03:55;;;;;;;18.20;6.80;;;;;;;;;;4362145;33;20145;-73
2021/04/24 01:06:20;;;;;;;15.40;7.43;;;;;;;;;;4361420;32;20186;-73
2021/04/24 01:08:48;;;;;;;18.40;7.43;;;;;;;;;;4361981;32;20132;-72
2021/04/24 01:11:13;;;;;;;15.63;7.07;;;;;;;;;;4361633;32;20226;-73
2021/04/24 01:13:38;;;;;;;19.13;7.57;;;;;;;;;;4360684;32;20182;-73
2021/04/24 01:16:04;;;;;;;21.90;7.20;;;;;;;;;;4356914;33;20155;-73
2021/04/24 01:18:29;;;;;;;18.30;7.83;;;;;;;;;;4361513;33;20205;-73
2021/04/24 01:20:58;;;;;;;21.57;8.23;;;;;;;;;;4361903;33;20181;-73
2021/04/24 01:23:24;;;;;;;19.37;7.47;;;;;;;;;;4361120;32;20166;-73
2021/04/24 01:25:49;;;;;;;17.67;7.67;;;;;;;;;;4361298;32;20214;-73
2021/04/24 01:28:15;;;;;;;16.40;6.90;;;;;;;;;;4361303;32;20485;-73
2021/04/24 01:30:42;;;;;;;19.93;8.10;;;;;;;;;;4361901;32;20196;-73
2021/04/24 01:33:09;;;;;;;17.67;7.07;;;;;;;;;;4372630;32;20217;-73
2021/04/24 01:35:36;;;;;;;22.83;8.27;;;;;;;;;;4359858;33;20194;-72
2021/04/24 01:38:02;;;;;;;18.10;7.60;;;;;;;;;;4361365;32;20158;-72
2021/04/24 01:40:27;;;;;;;20.97;8.03;;;;;;;;;;4361575;32;20237;-72
2021/04/24 01:42:53;;;;;;;16.60;7.43;;;;;;;;;;4360999;32;20157;-71
2021/04/24 01:45:19;;;;;;;18.80;7.90;;;;;;;;;;4361272;32;20166;-72
2021/04/24 01:47:45;;;;;;;21.13;7.93;;;;;;;;;;4361248;32;20201;-72
2021/04/24 01:50:12;;;;;;;15.60;7.80;;;;;;;;;;4361699;32;20473;-72
2021/04/24 01:52:37;;;;;;;17.27;7.73;;;;;;;;;;4361191;32;20166;-71
2021/04/24 01:55:05;;;;;;;18.53;7.93;;;;;;;;;;4361390;32;20123;-72
2021/04/24 01:57:30;;;;;;;23.50;8.20;;;;;;;;;;4359877;32;20151;-72
2021/04/24 01:59:56;;;;;;;16.57;7.47;;;;;;;;;;4361117;32;20544;-72
2021/04/24 02:02:23;;;;;;;21.37;8.27;;;;;;;;;;4361049;32;20154;-72
2021/04/24 02:04:48;;;;;;;17.80;7.83;;;;;;;;;;4361259;32;20185;-72
2021/04/24 02:07:13;;;;;;;20.83;8.20;;;;;;;;;;4360490;32;20230;-72
2021/04/24 02:09:38;;;;;;;17.17;8.10;;;;;;;;;;4361097;32;20190;-72
2021/04/24 02:12:11;;;;;;;20.50;7.83;;;;;;;;;;4360868;32;20127;-71
2021/04/24 02:14:55;;;;;;;21.80;8.27;;;;;;;;;;4371855;32;20200;-73
2021/04/24 02:17:24;;;;;;;20.30;8.40;;;;;;;;;;4361033;32;20431;-73
2021/04/24 02:19:50;;;;;;;18.97;8.23;;;;;;;;;;4359924;32;20154;-71
2021/04/24 02:22:15;;;;;;;20.60;8.60;;;;;;;;;;4360713;32;20123;-72
2021/04/24 02:24:47;;;;;;;20.67;8.50;;;;;;;;;;4371440;32;20201;-72
2021/04/24 02:27:13;;;;;;;25.67;7.80;;;;;;;;;;4360441;32;20201;-72
2021/04/24 02:29:39;;;;;;;22.73;8.37;;;;;;;;;;4360675;32;20139;-72
2021/04/24 02:32:05;;;;;;;25.77;8.93;;;;;;;;;;4360318;32;20131;-72
2021/04/24 02:34:30;;;;;;;20.70;8.53;;;;;;;;;;4360890;32;20153;-72
2021/04/24 02:36:56;;;;;;;19.63;8.80;;;;;;;;;;4360793;33;20124;-71
2021/04/24 02:39:28;;;;;;;23.20;8.93;;;;;;;;;;4360558;32;20128;-72
2021/04/24 02:41:53;;;;;;;21.03;8.80;;;;;;;;;;4359992;32;20209;-72
2021/04/24 02:44:18;;;;;;;24.53;8.37;;;;;;;;;;4360488;32;20541;-72
2021/04/24 02:46:44;;;;;;;22.20;8.03;;;;;;;;;;4360149;32;20638;-72
2021/04/24 02:49:09;;;;;;;22.20;8.70;;;;;;;;;;4361571;32;20165;-72
2021/04/24 02:51:34;;;;;;;22.17;8.90;;;;;;;;;;4360345;33;20142;-72
2021/04/24 02:53:59;;;;;;;20.30;8.60;;;;;;;;;;4359909;33;20186;-72
2021/04/24 02:56:25;;;;;;;24.50;9.23;;;;;;;;;;4360500;32;20139;-72
2021/04/24 02:58:50;;;;;;;23.53;8.80;;;;;;;;;;4360262;32;20234;-72
2021/04/24 03:01:15;;;;;;;26.07;9.83;;;;;;;;;;4360463;32;20135;-72
2021/04/24 03:03:41;;;;;;;25.87;9.07;;;;;;;;;;4359997;33;20131;-72
2021/04/24 03:06:06;;;;;;;23.17;9.83;;;;;;;;;;4360004;33;20161;-72
2021/04/24 03:08:31;;;;;;;24.33;9.13;;;;;;;;;;4360408;33;20599;-72
2021/04/24 03:11:00;;;;;;;28.20;8.97;;;;;;;;;;4360159;33;20220;-72
2021/04/24 03:13:26;;;;;;;25.30;9.30;;;;;;;;;;4359829;33;20139;-72
2021/04/24 03:15:51;;;;;;;28.00;9.83;;;;;;;;;;4360756;33;20177;-72
2021/04/24 03:18:16;;;;;;;27.13;9.60;;;;;;;;;;4360657;33;20552;-72
2021/04/24 03:20:42;;;;;;;24.27;9.17;;;;;;;;;;4360249;33;20186;-72
2021/04/24 03:23:09;;;;;;;22.37;9.47;;;;;;;;;;4360406;33;20142;-71
2021/04/24 03:25:34;;;;;;;26.10;9.60;;;;;;;;;;4359277;33;20152;-72
2021/04/24 03:28:09;;;;;;;28.67;10.00;;;;;;;;;;4360046;33;20239;-72
2021/04/24 03:30:35;;;;;;;23.47;9.90;;;;;;;;;;4360282;33;20130;-72
2021/04/24 03:33:00;;;;;;;29.67;9.77;;;;;;;;;;4359889;33;20514;-72
2021/04/24 03:35:25;;;;;;;26.43;10.00;;;;;;;;;;4360362;33;20150;-72
2021/04/24 03:37:54;;;;;;;25.07;9.90;;;;;;;;;;4360986;33;20542;-72
2021/04/24 03:40:19;;;;;;;27.27;10.03;;;;;;;;;;4371178;32;20189;-72
2021/04/24 03:42:44;;;;;;;20.27;9.70;;;;;;;;;;4359934;33;20144;-72
2021/04/24 03:45:21;;;;;;;25.77;9.60;;;;;;;;;;4359809;33;20197;-72
2021/04/24 03:47:47;;;;;;;24.63;9.77;;;;;;;;;;4359740;33;20142;-72
2021/04/24 03:50:13;;;;;;;22.87;9.17;;;;;;;;;;4359709;33;20139;-72
2021/04/24 03:52:38;;;;;;;23.70;10.10;;;;;;;;;;4361324;32;20466;-72
2021/04/24 03:55:04;;;;;;;24.50;10.30;;;;;;;;;;4362431;33;20221;-71
2021/04/24 03:57:29;;;;;;;23.33;9.77;;;;;;;;;;4363129;32;20146;-72
2021/04/24 03:59:54;;;;;;;26.40;10.57;;;;;;;;;;4362783;32;20185;-72
2021/04/24 04:02:20;;;;;;;22.27;9.50;;;;;;;;;;4363050;32;20154;-72
2021/04/24 04:04:45;;;;;;;30.30;10.97;;;;;;;;;;4363067;32;20151;-72
2021/04/24 04:07:11;;;;;;;25.80;10.33;;;;;;;;;;4361996;33;20143;-72
2021/04/24 04:09:36;;;;;;;26.70;10.00;;;;;;;;;;4362662;32;20221;-72
2021/04/24 04:12:01;;;;;;;25.83;10.63;;;;;;;;;;4362129;33;20169;-73
2021/04/24 04:14:26;;;;;;;25.40;10.37;;;;;;;;;;4362733;33;20284;-72
2021/04/24 04:16:52;;;;;;;27.73;10.37;;;;;;;;;;4362465;32;20127;-72
2021/04/24 04:19:17;;;;;;;25.60;9.67;;;;;;;;;;4362195;32;20500;-73
2021/04/24 04:21:43;;;;;;;27.87;10.30;;;;;;;;;;4362233;32;20476;-72
2021/04/24 04:24:08;;;;;;;29.13;10.03;;;;;;;;;;4361022;32;20159;-72
2021/04/24 04:26:33;;;;;;;25.80;10.73;;;;;;;;;;4362042;32;20528;-72
2021/04/24 04:29:00;;;;;;;28.73;10.90;;;;;;;;;;4362458;32;20470;-72
2021/04/24 04:31:25;;;;;;;23.60;9.10;;;;;;;;;;4362726;32;20161;-72
2021/04/24 04:33:50;;;;;;;22.57;9.57;;;;;;;;;;4362653;32;20128;-72
2021/04/24 04:36:16;;;;;;;26.73;10.47;;;;;;;;;;4362476;32;20127;-72
2021/04/24 04:38:41;;;;;;;26.60;9.80;;;;;;;;;;4361775;33;20139;-71
2021/04/24 04:41:08;;;;;;;24.20;9.83;;;;;;;;;;4362192;33;20180;-72
2021/04/24 04:43:36;;;;;;;26.03;9.93;;;;;;;;;;4362676;32;20192;-74
2021/04/24 04:46:01;;;;;;;24.83;9.77;;;;;;;;;;4362519;32;20178;-75
2021/04/24 04:48:26;;;;;;;23.90;9.47;;;;;;;;;;4360529;33;20194;-73
2021/04/24 04:50:52;;;;;;;27.07;10.17;;;;;;;;;;4361857;32;20205;-73
2021/04/24 04:53:20;;;;;;;26.63;9.80;;;;;;;;;;4361851;32;20240;-73
2021/04/24 04:55:48;;;;;;;20.73;9.93;;;;;;;;;;4362208;32;20135;-73
2021/04/24 04:58:13;;;;;;;23.73;9.20;;;;;;;;;;4361414;32;20139;-72
2021/04/24 05:00:38;;;;;;;20.83;9.70;;;;;;;;;;4361906;32;20131;-72
2021/04/24 05:03:04;;;;;;;25.70;9.53;;;;;;;;;;4361579;32;20158;-72
2021/04/24 05:05:29;;;;;;;26.93;9.93;;;;;;;;;;4361371;33;20131;-73
2021/04/24 05:07:54;;;;;;;23.13;9.40;;;;;;;;;;4361220;32;20490;-73
2021/04/24 05:10:23;;;;;;;25.90;9.37;;;;;;;;;;4361704;32;20541;-72
2021/04/24 05:12:49;;;;;;;21.53;9.40;;;;;;;;;;4361532;32;20158;-72
2021/04/24 05:15:14;;;;;;;30.80;10.73;;;;;;;;;;4361855;32;20537;-72
2021/04/24 05:17:39;;;;;;;26.77;9.93;;;;;;;;;;4376451;32;20173;-72
2021/04/24 05:20:05;;;;;;;21.27;9.60;;;;;;;;;;4362794;32;20209;-72
2021/04/24 05:22:31;;;;;;;24.47;9.40;;;;;;;;;;4376519;32;20123;-72
2021/04/24 05:24:57;;;;;;;19.43;8.97;;;;;;;;;;4362547;32;20221;-73
2021/04/24 05:27:23;;;;;;;21.87;9.07;;;;;;;;;;4376462;32;20154;-71
2021/04/24 05:29:48;;;;;;;22.67;8.80;;;;;;;;;;4376159;32;20139;-73
2021/04/24 05:32:13;;;;;;;20.60;10.07;;;;;;;;;;4375953;32;20131;-72
2021/04/24 05:34:38;;;;;;;20.67;8.37;;;;;;;;;;4362546;32;20200;-72
2021/04/24 05:37:04;;;;;;;22.47;9.00;;;;;;;;;;4376270;32;20130;-72
2021/04/24 05:39:35;;;;;;;19.30;8.97;;;;;;;;;;4376375;32;20127;-73
2021/04/24 05:42:03;;;;;;;20.43;8.37;;;;;;;;;;4374409;32;20139;-73
2021/04/24 05:44:29;;;;;;;20.20;8.60;;;;;;;;;;4361191;32;20127;-73
2021/04/24 05:46:54;;;;;;;23.07;8.57;;;;;;;;;;4361424;32;20161;-72
2021/04/24 05:49:25;;;;;;;18.93;8.90;;;;;;;;;;4347679;33;20170;-72
2021/04/24 05:51:51;;;;;;;17.63;7.53;;;;;;;;;;4360812;32;20128;-71
2021/04/24 05:54:16;;;;;;;19.37;7.70;;;;;;;;;;4361175;32;20185;-71
2021/04/24 05:56:55;;;;;;;17.80;7.83;;;;;;;;;;4361343;32;20131;-73
2021/04/24 05:59:21;;;;;;;18.63;7.57;;;;;;;;;;4356337;33;20178;-73
2021/04/24 06:01:46;;;;;;;16.80;8.10;;;;;;;;;;4360689;32;20460;-72
2021/04/24 06:04:11;;;;;;;15.30;7.53;;;;;;;;;;4360856;32;20139;-72
2021/04/24 06:06:37;;;;;;;20.93;7.70;;;;;;;;;;4360479;32;20221;-72
2021/04/24 06:09:02;;;;;;;16.57;7.37;;;;;;;;;;4361286;32;20257;-72
2021/04/24 06:11:27;;;;;;;17.90;7.50;;;;;;;;;;4360868;32;20163;-72
2021/04/24 06:14:08;;;;;;;16.43;6.43;;;;;;;;;;4361023;32;20214;-72
2021/04/24 06:16:34;;;;;;;15.90;7.47;;;;;;;;;;4359795;32;20127;-71
2021/04/24 06:19:02;;;;;;;21.00;7.07;;;;;;;;;;4360168;33;20197;-71
2021/04/24 06:21:27;;;;;;;14.37;6.60;;;;;;;;;;4360779;32;20426;-72
2021/04/24 06:23:52;;;;;;;15.50;6.73;;;;;;;;;;4360614;32;20135;-70
2021/04/24 06:26:18;;;;;;;16.87;6.60;;;;;;;;;;4360980;32;20135;-70
2021/04/24 06:28:44;;;;;;;15.63;6.40;;;;;;;;;;4360064;32;20595;-71
2021/04/24 06:31:09;;;;;;;15.87;6.97;;;;;;;;;;4359582;32;20205;-70
2021/04/24 06:33:34;;;;;;;16.53;6.80;;;;;;;;;;4360278;32;20136;-71
2021/04/24 06:36:00;;;;;;;17.10;7.13;;;;;;;;;;4360392;32;20166;-71
2021/04/24 06:38:25;;;;;;;17.40;7.10;;;;;;;;;;4360000;33;20132;-70
2021/04/24 06:40:50;;;;;;;14.63;6.73;;;;;;;;;;4360354;32;20127;-69
2021/04/24 06:43:15;;;;;;;13.13;5.67;;;;;;;;;;4349119;33;20135;-71
2021/04/24 06:45:41;;;;;;;17.07;6.87;;;;;;;;;;4350956;33;20142;-72
2021/04/24 06:48:06;;;;;;;13.90;6.90;;;;;;;;;;4360696;32;20132;-73
2021/04/24 06:50:31;;;;;;;17.17;6.63;;;;;;;;;;4359661;32;20189;-72
2021/04/24 06:52:57;;;;;;;18.97;7.30;;;;;;;;;;4360818;32;20190;-72
2021/04/24 06:55:23;;;;;;;13.53;6.50;;;;;;;;;;4360343;32;20475;-71
2021/04/24 06:57:48;;;;;;;16.73;7.73;;;;;;;;;;4360011;32;20491;-71
2021/04/24 07:00:15;;;;;;;15.07;6.83;;;;;;;;;;4373172;32;20135;-71
2021/04/24 07:02:43;;;;;;;12.90;7.00;;;;;;;;;;4372002;32;20147;-71
2021/04/24 07:05:10;;;;;;;17.53;6.90;;;;;;;;;;4374868;32;20154;-71
2021/04/24 07:07:35;;;;;;;15.43;6.23;;;;;;;;;;4375119;32;20155;-71
2021/04/24 07:10:00;;;;;;;14.90;6.47;;;;;;;;;;4375514;32;20496;-71
2021/04/24 07:12:26;;;;;;;15.43;6.23;;;;;;;;;;4375258;32;20135;-72
2021/04/24 07:14:51;;;;;;;13.70;6.10;;;;;;;;;;4375120;32;20185;-72
2021/04/24 07:17:16;;;;;;;11.83;5.80;;;;;;;;;;4374815;32;20128;-70
2021/04/24 07:19:41;;;;;;;11.87;4.90;;;;;;;;;;4361085;32;20205;-71
2021/04/24 07:22:07;;;;;;;13.00;5.30;;;;;;;;;;4375509;32;20162;-70
2021/04/24 07:24:32;;;;;;;12.77;5.20;;;;;;;;;;4374374;32;20131;-72
2021/04/24 07:26:57;;;;;;;9.37;5.07;;;;;;;;;;4375926;32;20162;-71
2021/04/24 07:29:23;;;;;;;10.13;5.13;;;;;;;;;;4377424;32;20131;-72
2021/04/24 07:31:48;;;;;;;14.60;5.30;;;;;;;;;;4376042;32;20139;-71
2021/04/24 07:34:13;;;;;;;10.97;5.00;;;;;;;;;;4363444;32;20181;-72
2021/04/24 07:36:39;;;;;;;12.23;5.30;;;;;;;;;;4363831;32;20510;-71
2021/04/24 07:39:05;;;;;;;13.20;5.53;;;;;;;;;;4362926;32;20197;-71
2021/04/24 07:41:30;;;;;;;10.43;4.73;;;;;;;;;;4361638;33;20279;-73
2021/04/24 07:43:55;;;;;;;10.97;5.00;;;;;;;;;;4362742;32;20603;-70
2021/04/24 07:46:23;;;;;;;16.17;4.87;;;;;;;;;;4362600;32;20139;-71
2021/04/24 07:48:48;;;;;;;9.00;4.80;;;;;;;;;;4362275;32;20159;-72
2021/04/24 07:51:14;;;;;;;10.27;4.53;;;;;;;;;;4362986;32;20468;-72
2021/04/24 07:53:39;;;;;;;13.10;5.17;;;;;;;;;;4361164;33;20155;-74
2021/04/24 07:56:04;;;;;;;12.80;5.43;;;;;;;;;;4361359;32;20561;-74
2021/04/24 07:58:30;;;;;;;10.73;5.00;;;;;;;;;;4362059;32;20250;-74
2021/04/24 08:01:02;;;;;;;11.10;5.20;;;;;;;;;;4361531;32;20159;-72
2021/04/24 08:03:28;;;;;;;7.63;4.07;;;;;;;;;;4356127;32;20198;-74
2021/04/24 08:05:53;;;;;;;13.00;4.47;;;;;;;;;;4355126;32;20564;-72
2021/04/24 08:08:19;;;;;;;7.23;3.57;;;;;;;;;;4359552;33;20151;-73
2021/04/24 08:10:44;;;;;;;8.20;3.50;;;;;;;;;;4347661;32;20178;-68
2021/04/24 08:13:09;;;;;;;7.07;3.77;;;;;;;;;;4348052;33;20647;-73
2021/04/24 08:15:34;;;;;;;9.10;3.60;;;;;;;;;;4350490;32;20166;-71
2021/04/24 08:18:00;;;;;;;8.43;3.70;;;;;;;;;;4354410;32;20148;-72
2021/04/24 08:20:25;;;;;;;9.97;3.77;;;;;;;;;;4350645;32;20197;-73
2021/04/24 08:22:51;;;;;;;6.57;3.60;;;;;;;;;;4375997;32;20138;-73
2021/04/24 08:25:16;;;;;;;7.27;3.73;;;;;;;;;;4377241;32;20143;-71
2021/04/24 08:27:41;;;;;;;10.40;4.10;;;;;;;;;;4367234;32;20523;-73
2021/04/24 08:30:14;;;;;;;9.60;3.80;;;;;;;;;;4357210;33;20243;-71
2021/04/24 08:32:40;;;;;;;9.00;3.37;;;;;;;;;;4361544;32;20132;-71
2021/04/24 08:35:11;;;;;;;6.00;3.10;;;;;;;;;;4360747;33;20190;-71
2021/04/24 08:37:37;;;;;;;6.63;3.77;;;;;;;;;;4360265;32;20206;-70
2021/04/24 08:40:04;;;;;;;8.87;3.47;;;;;;;;;;4361136;32;20135;-71
2021/04/24 08:42:30;;;;;;;7.28;3.55;;;;;;;;;;4361709;32;20151;-69
2021/04/24 08:44:55;;;;;;;8.27;3.77;;;;;;;;;;4362106;32;20261;-72
2021/04/24 08:47:21;;;;;;;9.03;3.87;;;;;;;;;;4361707;32;20135;-72
2021/04/24 08:49:47;;;;;;;6.80;3.90;;;;;;;;;;4352121;33;20183;-72
2021/04/24 08:52:12;;;;;;;9.53;4.10;;;;;;;;;;4345506;33;20246;-70
2021/04/24 08:54:38;;;;;;;6.20;3.20;;;;;;;;;;4361511;32;20166;-74
2021/04/24 08:57:03;;;;;;;6.25;3.53;;;;;;;;;;4360478;32;20489;-71
2021/04/24 08:59:28;;;;;;;7.28;3.85;;;;;;;;;;4361566;33;20223;-73
2021/04/24 09:01:54;;;;;;;6.23;3.30;;;;;;;;;;4361368;32;20131;-71
2021/04/24 09:04:19;;;;;;;5.90;3.17;;;;;;;;;;4356575;32;20571;-72
2021/04/24 09:06:44;;;;;;;7.85;3.15;;;;;;;;;;4358095;33;20155;-74
2021/04/24 09:09:11;;;;;;;5.72;3.08;;;;;;;;;;4357996;32;20171;-71
2021/04/24 09:11:43;;;;;;;10.57;3.30;;;;;;;;;;4358730;32;20158;-72
2021/04/24 09:14:09;;;;;;;7.00;2.60;;;;;;;;;;4350725;32;20166;-69
2021/04/24 09:16:35;;;;;;;3.95;2.58;;;;;;;;;;4354002;33;20139;-71
2021/04/24 09:19:01;;;;;;;8.63;3.10;;;;;;;;;;4360152;33;20151;-70
2021/04/24 09:21:28;;;;;;;3.10;2.20;;;;;;;;;;4361706;32;20130;-71
2021/04/24 09:23:54;;;;;;;6.07;2.62;;;;;;;;;;4360470;32;20159;-73
2021/04/24 09:26:27;;;;;;;6.47;3.22;;;;;;;;;;4359537;32;20198;-71
2021/04/24 09:29:00;;;;;;;8.25;3.10;;;;;;;;;;4361002;32;20165;-72
2021/04/24 09:31:26;;;;;;;6.03;3.17;;;;;;;;;;4361153;32;20244;-74
2021/04/24 09:34:02;;;;;;;4.50;2.80;;;;;;;;;;4358615;32;20151;-70
2021/04/24 09:36:36;;;;;;;8.57;3.30;;;;;;;;;;4361177;32;20154;-70
2021/04/24 09:39:03;;;;;;;6.40;3.15;;;;;;;;;;4359738;33;20162;-71
2021/04/24 09:41:33;;;;;;;6.10;2.62;;;;;;;;;;4360609;32;20131;-71
2021/04/24 09:44:00;;;;;;;4.65;2.35;;;;;;;;;;4361556;32;20564;-73
2021/04/24 09:46:27;;;;;;;6.28;2.70;;;;;;;;;;4361680;32;20165;-73
2021/04/24 09:49:11;;;;;;;5.90;2.80;;;;;;;;;;4357081;33;20147;-73
2021/04/24 09:51:40;;;;;;;4.07;2.35;;;;;;;;;;4346100;33;20210;-71
2021/04/24 09:54:06;;;;;;;5.12;2.83;;;;;;;;;;4332124;33;20265;-72
2021/04/24 09:56:32;;;;;;;10.73;3.00;;;;;;;;;;4344766;33;20255;-73
2021/04/24 09:59:02;;;;;;;6.12;3.15;;;;;;;;;;4346530;33;20163;-73
2021/04/24 10:01:31;;;;;;;6.15;2.90;;;;;;;;;;4344497;33;20186;-70
2021/04/24 10:03:56;;;;;;;7.12;3.28;;;;;;;;;;4344979;33;20155;-73
2021/04/24 10:06:21;;;;;;;5.95;2.80;;;;;;;;;;4345511;33;20132;-68
2021/04/24 10:08:47;;;;;;;8.18;3.60;;;;;;;;;;4345906;33;20123;-73
2021/04/24 10:11:27;;;;;;;5.80;3.08;;;;;;;;;;4344300;33;20185;-73
2021/04/24 10:13:53;;;;;;;5.30;2.85;;;;;;;;;;4337646;33;20163;-72
2021/04/24 10:16:37;;;;;;;5.72;3.25;;;;;;;;;;4360380;32;20202;-74
2021/04/24 10:19:04;;;;;;;6.80;3.03;;;;;;;;;;4360537;32;20158;-73
2021/04/24 10:21:30;;;;;;;7.20;3.78;;;;;;;;;;4360564;32;20131;-73
2021/04/24 10:23:56;;;;;;;6.25;3.42;;;;;;;;;;4360288;32;20185;-73
2021/04/24 10:26:21;;;;;;;7.55;3.40;;;;;;;;;;4359017;32;20155;-73
2021/04/24 10:28:49;;;;;;;5.72;3.08;;;;;;;;;;4359158;33;20181;-71
2021/04/24 10:31:15;;;;;;;4.28;2.95;;;;;;;;;;4357014;32;20151;-73
2021/04/24 10:33:40;;;;;;;5.53;3.05;;;;;;;;;;4345803;33;20136;-73
2021/04/24 10:36:06;;;;;;;5.05;2.80;;;;;;;;;;4348814;33;20579;-71
2021/04/24 10:38:32;;;;;;;6.32;2.95;;;;;;;;;;4359652;32;20428;-73
2021/04/24 10:40:58;;;;;;;6.30;3.40;;;;;;;;;;4360109;32;20166;-73
2021/04/24 10:43:23;;;;;;;6.70;2.83;;;;;;;;;;4360576;33;20550;-73
2021/04/24 10:45:49;;;;;;;5.05;3.00;;;;;;;;;;4359963;32;20132;-73
2021/04/24 10:48:24;;;;;;;7.32;2.80;;;;;;;;;;4360792;32;20196;-73
2021/04/24 10:50:50;;;;;;;5.95;2.67;;;;;;;;;;4359994;32;20151;-72
2021/04/24 10:53:21;;;;;;;6.18;2.55;;;;;;;;;;4360195;32;20131;-72
2021/04/24 10:55:47;;;;;;;4.25;2.53;;;;;;;;;;4358462;33;20245;-73
2021/04/24 10:58:19;;;;;;;4.65;2.80;;;;;;;;;;4360186;32;20450;-74
2021/04/24 11:00:47;;;;;;;6.05;3.25;;;;;;;;;;4360015;32;20253;-73
2021/04/24 11:03:32;;;;;;;5.85;2.62;;;;;;;;;;4358490;33;20485;-74
2021/04/24 11:06:06;;;;;;;6.00;3.05;;;;;;;;;;4346896;33;20190;-72
2021/04/24 11:08:37;;;;;;;7.95;2.72;;;;;;;;;;4358639;33;20241;-73
2021/04/24 11:11:10;;;;;;;7.00;3.20;;;;;;;;;;4360065;33;20180;-74
2021/04/24 11:13:40;;;;;;;5.00;2.75;;;;;;;;;;4352073;33;20151;-73
2021/04/24 11:16:11;;;;;;;6.82;2.87;;;;;;;;;;4340273;33;20663;-72
2021/04/24 11:18:37;;;;;;;4.15;2.20;;;;;;;;;;4345027;33;20178;-72
2021/04/24 11:21:09;;;;;;;4.57;2.40;;;;;;;;;;4345028;33;20139;-71
2021/04/24 11:24:00;;;;;;;6.25;2.47;;;;;;;;;;4356992;32;20222;-73
2021/04/24 11:26:31;;;;;;;5.37;2.90;;;;;;;;;;4345759;33;20174;-73
2021/04/24 11:28:58;;;;;;;3.12;2.05;;;;;;;;;;4348069;32;20174;-73
2021/04/24 11:31:42;;;;;;;4.95;2.40;;;;;;;;;;4373227;32;20158;-73
2021/04/24 11:34:24;;;;;;;4.37;2.80;;;;;;;;;;4363013;32;20201;-73
2021/04/24 11:37:08;;;;;;;4.45;2.50;;;;;;;;;;4359170;33;20139;-72
2021/04/24 11:39:33;;;;;;;4.32;2.50;;;;;;;;;;4360232;32;20181;-74
2021/04/24 11:41:58;;;;;;;3.70;2.40;;;;;;;;;;4373575;32;20151;-72
2021/04/24 11:44:27;;;;;;;5.80;2.47;;;;;;;;;;4360906;32;20198;-73
2021/04/24 11:46:53;;;;;;;3.87;2.40;;;;;;;;;;4360989;32;20159;-72
2021/04/24 11:49:20;;;;;;;2.75;2.00;;;;;;;;;;4374302;32;20174;-73
2021/04/24 11:51:55;;;;;;;4.72;2.37;;;;;;;;;;4373029;32;20174;-72
2021/04/24 11:54:25;;;;;;;2.60;2.10;;;;;;;;;;4361475;32;20497;-71
2021/04/24 11:56:50;;;;;;;5.68;2.60;;;;;;;;;;4374139;32;20208;-71
2021/04/24 11:59:19;;;;;;;3.67;2.35;;;;;;;;;;4360114;32;20580;-69
2021/04/24 12:01:44;;;;;;;4.28;2.33;;;;;;;;;;4346077;33;20520;-73
2021/04/24 12:04:26;;;;;;;3.73;2.53;;;;;;;;;;4359380;32;20206;-73
2021/04/24 12:06:58;;;;;;;4.55;2.75;;;;;;;;;;4345633;33;20267;-72
2021/04/24 12:09:43;;;;;;;7.65;2.90;;;;;;;;;;4359994;33;20139;-71
2021/04/24 12:12:11;;;;;;;4.45;2.70;;;;;;;;;;4359469;33;20636;-71
2021/04/24 12:14:36;;;;;;;4.20;2.42;;;;;;;;;;4351022;32;20591;-73
2021/04/24 12:17:33;;;;;;;6.72;2.40;;;;;;;;;;4347020;33;20136;-73
2021/04/24 12:20:08;;;;;;;8.15;2.80;;;;;;;;;;4346129;33;20211;-71
2021/04/24 12:22:56;;;;;;;4.15;2.60;;;;;;;;;;4358253;32;20205;-72
2021/04/24 12:25:23;;;;;;;4.28;2.58;;;;;;;;;;4361122;32;20158;-73
2021/04/24 12:27:49;;;;;;;5.18;2.60;;;;;;;;;;4349688;32;20191;-71
2021/04/24 12:30:22;;;;;;;4.97;2.80;;;;;;;;;;4343847;33;20164;-71
2021/04/24 12:32:57;;;;;;;7.00;3.00;;;;;;;;;;4345918;33;20178;-74
2021/04/24 12:35:24;;;;;;;6.90;3.20;;;;;;;;;;4343395;33;20171;-73
2021/04/24 12:37:58;;;;;;;8.48;3.55;;;;;;;;;;4345468;33;20151;-72
2021/04/24 12:40:23;;;;;;;7.22;3.70;;;;;;;;;;4345190;33;20178;-74
2021/04/24 12:42:49;;;;;;;8.05;3.78;;;;;;;;;;4331640;33;20214;-71
2021/04/24 12:45:24;;;;;;;8.68;4.37;;;;;;;;;;4346029;33;20139;-73
2021/04/24 12:47:50;;;;;;;10.35;4.40;;;;;;;;;;4333101;33;20199;-70
2021/04/24 12:50:39;;;;;;;6.70;3.90;;;;;;;;;;4320961;33;20187;-76
2021/04/24 12:53:04;;;;;;;6.47;3.50;;;;;;;;;;4242391;33;20147;-76
2021/04/24 12:55:35;;;;;;;10.98;4.30;;;;;;;;;;4274356;32;20218;-76
2021/04/24 12:58:01;;;;;;;9.15;4.70;;;;;;;;;;4278818;32;20152;-71
2021/04/24 13:00:28;;;;;;;8.80;4.35;;;;;;;;;;4269450;32;20198;-76
2021/04/24 13:03:15;;;;;;;12.48;5.37;;;;;;;;;;4264559;33;20144;-74
2021/04/24 13:05:39;;;;;;;9.25;4.90;;;;;;;;;;4269287;33;20191;-75
2021/04/24 13:08:08;;;;;;;12.95;5.25;;;;;;;;;;4287781;32;20634;-74
2021/04/24 13:10:34;;;;;;;10.48;5.32;;;;;;;;;;4253681;32;20617;-77
2021/04/24 13:12:59;;;;;;;10.07;5.50;;;;;;;;;;4236840;32;20512;-75
2021/04/24 13:15:25;;;;;;;13.10;5.57;;;;;;;;;;4242036;32;21065;-77
2021/04/24 13:17:50;;;;;;;11.77;5.32;;;;;;;;;;4262173;33;20536;-75
2021/04/24 13:20:28;;;;;;;11.60;5.60;;;;;;;;;;4279242;32;20616;-76
2021/04/24 13:23:02;;;;;;;10.85;5.50;;;;;;;;;;4283168;32;20270;-76
2021/04/24 13:25:29;;;;;;;10.15;5.30;;;;;;;;;;4303295;32;20578;-72
2021/04/24 13:27:58;;;;;;;10.40;5.47;;;;;;;;;;4365661;32;20242;-73
2021/04/24 13:30:24;;;;;;;14.07;5.62;;;;;;;;;;4336839;32;20576;-72
2021/04/24 13:32:54;;;;;;;10.38;5.28;;;;;;;;;;4348160;33;20229;-72
2021/04/24 13:35:19;;;;;;;11.07;5.40;;;;;;;;;;4344903;33;20194;-74
2021/04/24 13:37:44;;;;;;;9.45;5.15;;;;;;;;;;4355060;33;20222;-73
2021/04/24 13:40:10;;;;;;;12.60;5.30;;;;;;;;;;4359995;32;20221;-72
2021/04/24 13:42:49;;;;;;;9.68;5.03;;;;;;;;;;4359636;32;20162;-73
2021/04/24 13:45:16;;;;;;;11.18;5.07;;;;;;;;;;4359833;32;20166;-73
2021/04/24 13:47:42;;;;;;;10.30;5.43;;;;;;;;;;4358502;32;20139;-73
2021/04/24 13:50:09;;;;;;;9.27;5.10;;;;;;;;;;4358657;32;20158;-72
2021/04/24 13:52:35;;;;;;;11.57;5.03;;;;;;;;;;4357327;33;20179;-73
2021/04/24 13:55:00;;;;;;;10.40;5.60;;;;;;;;;;4365334;32;20169;-73
2021/04/24 13:57:25;;;;;;;12.02;6.15;;;;;;;;;;4362333;32;20494;-72
2021/04/24 13:59:53;;;;;;;10.52;4.78;;;;;;;;;;4362275;32;20230;-71
2021/04/24 14:02:19;;;;;;;8.75;4.55;;;;;;;;;;4374202;32;20621;-73
2021/04/24 14:04:44;;;;;;;9.40;4.60;;;;;;;;;;4341076;33;20225;-73
2021/04/24 14:07:09;;;;;;;12.52;4.50;;;;;;;;;;4331300;33;20175;-74
2021/04/24 14:09:38;;;;;;;11.18;4.78;;;;;;;;;;4335922;32;20151;-76
2021/04/24 14:12:09;;;;;;;9.02;4.65;;;;;;;;;;4334226;32;20166;-73
2021/04/24 14:14:43;;;;;;;9.88;4.75;;;;;;;;;;4334998;32;20170;-75
2021/04/24 14:17:09;;;;;;;14.75;4.72;;;;;;;;;;4334759;32;20254;-71
2021/04/24 14:19:36;;;;;;;11.48;4.10;;;;;;;;;;4368154;32;20568;-73
2021/04/24 14:22:06;;;;;;;9.13;4.30;;;;;;;;;;4362706;32;20208;-73
2021/04/24 14:24:34;;;;;;;11.43;4.18;;;;;;;;;;4358872;32;20240;-73
2021/04/24 14:27:00;;;;;;;10.15;4.30;;;;;;;;;;4360150;33;20230;-73
2021/04/24 14:29:27;;;;;;;6.78;3.30;;;;;;;;;;4338088;32;20170;-71
2021/04/24 14:32:07;;;;;;;9.02;3.83;;;;;;;;;;4351223;32;20147;-76
2021/04/24 14:34:47;;;;;;;7.60;3.40;;;;;;;;;;4348968;32;20181;-76